Aviation Digital Data Service (ADDS)

Output produced by TAFs form (1859 UTC 19 September 2017)
found at http://www.aviationweather.gov/adds/tafs/
 
METAR text: RJFR 191800Z 20006KT 9999 FEW020 BKN170 24/18 Q1011
Conditions at: RJFR (KITAKYUSHU/KOKUR, JP) observed 1800 UTC 19 September 2017
Temperature: 24.0°C (75°F)
Dewpoint: 18.0°C (64°F) [RH = 69%]
Pressure (altimeter): 29.85 inches Hg (1011.0 mb)
Winds: from the SSW (200 degrees) at 7 MPH (6 knots; 3.1 m/s)
Visibility: 6 or more miles (10+ km)
Ceiling: 17000 feet AGL
Clouds: few clouds at 2000 feet AGL
broken clouds at 17000 feet AGL
Weather: no significant weather observed at this time

Forecast for: RJFR (KITAKYUSHU/KOKUR, JP)
Text: TAF RJFR 191713Z 1918/2100 22011KT 9999 FEW020
Forecast period: 1800 UTC 19 September 2017 to 1200 UTC 20 September 2017
Forecast type: FROM: standard forecast or significant change
Winds: from the SW (220 degrees) at 13 MPH (11 knots; 5.7 m/s)
Visibility: 6 or more miles (10+ km)
Clouds: few clouds at 2000 feet AGL
Weather: no significant weather forecast for this period
Text: BECMG 2012/2015 06006KT
Forecast period: 1200 UTC 20 September 2017 to 0000 UTC 21 September 2017
Forecast type: BECOMING: Conditions expected to become as follows by 1500 UTC 20 September 2017
Winds: from the ENE (60 degrees) at 7 MPH (6 knots; 3.1 m/s)
Visibility: 6 or more miles (10+ km)
Clouds: few clouds at 2000 feet AGL
Weather: no significant weather forecast for this period